sensor_id;sensor_type;location;lat;lon;timestamp;P1;durP1;ratioP1;P2;durP2;ratioP2
10469;SDS011;5282;47.052;15.458;2023-09-19T00:00:20;5.80;;;5.50;;
10469;SDS011;5282;47.052;15.458;2023-09-19T00:02:52;6.33;;;5.80;;
10469;SDS011;5282;47.052;15.458;2023-09-19T00:05:21;6.93;;;6.27;;
10469;SDS011;5282;47.052;15.458;2023-09-19T00:07:49;6.47;;;5.87;;
10469;SDS011;5282;47.052;15.458;2023-09-19T00:10:19;6.57;;;5.90;;
10469;SDS011;5282;47.052;15.458;2023-09-19T00:12:47;7.47;;;5.90;;
10469;SDS011;5282;47.052;15.458;2023-09-19T00:15:15;8.27;;;5.70;;
10469;SDS011;5282;47.052;15.458;2023-09-19T00:17:43;5.67;;;5.17;;
10469;SDS011;5282;47.052;15.458;2023-09-19T00:20:10;5.50;;;4.97;;
10469;SDS011;5282;47.052;15.458;2023-09-19T00:22:39;5.43;;;4.80;;
10469;SDS011;5282;47.052;15.458;2023-09-19T00:25:08;5.23;;;4.67;;
10469;SDS011;5282;47.052;15.458;2023-09-19T00:27:37;5.83;;;4.87;;
10469;SDS011;5282;47.052;15.458;2023-09-19T00:30:07;5.03;;;4.53;;
10469;SDS011;5282;47.052;15.458;2023-09-19T00:32:41;4.50;;;4.20;;
10469;SDS011;5282;47.052;15.458;2023-09-19T00:35:10;4.13;;;3.80;;
10469;SDS011;5282;47.052;15.458;2023-09-19T00:37:37;5.93;;;4.10;;
10469;SDS011;5282;47.052;15.458;2023-09-19T00:40:05;4.97;;;4.57;;
10469;SDS011;5282;47.052;15.458;2023-09-19T00:42:36;4.70;;;4.40;;
10469;SDS011;5282;47.052;15.458;2023-09-19T00:45:03;4.77;;;4.37;;
10469;SDS011;5282;47.052;15.458;2023-09-19T00:47:31;4.13;;;3.93;;
10469;SDS011;5282;47.052;15.458;2023-09-19T00:50:00;4.27;;;3.80;;
10469;SDS011;5282;47.052;15.458;2023-09-19T00:52:28;3.90;;;3.70;;
10469;SDS011;5282;47.052;15.458;2023-09-19T00:54:57;3.80;;;3.50;;
10469;SDS011;5282;47.052;15.458;2023-09-19T00:57:25;5.70;;;3.90;;
10469;SDS011;5282;47.052;15.458;2023-09-19T00:59:52;4.13;;;3.90;;
10469;SDS011;5282;47.052;15.458;2023-09-19T01:02:21;3.90;;;3.70;;
10469;SDS011;5282;47.052;15.458;2023-09-19T01:04:48;4.70;;;4.30;;
10469;SDS011;5282;47.052;15.458;2023-09-19T01:07:16;4.23;;;3.87;;
10469;SDS011;5282;47.052;15.458;2023-09-19T01:09:43;4.80;;;3.80;;
10469;SDS011;5282;47.052;15.458;2023-09-19T01:12:11;4.70;;;4.40;;
10469;SDS011;5282;47.052;15.458;2023-09-19T01:14:46;4.50;;;4.20;;
10469;SDS011;5282;47.052;15.458;2023-09-19T01:17:32;5.27;;;4.77;;
10469;SDS011;5282;47.052;15.458;2023-09-19T01:20:15;5.30;;;4.60;;
10469;SDS011;5282;47.052;15.458;2023-09-19T01:22:53;5.10;;;4.80;;
10469;SDS011;5282;47.052;15.458;2023-09-19T01:25:45;4.23;;;3.93;;
10469;SDS011;5282;47.052;15.458;2023-09-19T01:28:30;5.80;;;4.40;;
10469;SDS011;5282;47.052;15.458;2023-09-19T01:31:03;3.80;;;3.60;;
10469;SDS011;5282;47.052;15.458;2023-09-19T01:36:23;4.33;;;3.90;;
10469;SDS011;5282;47.052;15.458;2023-09-19T01:38:50;3.90;;;3.67;;
10469;SDS011;5282;47.052;15.458;2023-09-19T01:41:20;4.43;;;4.03;;
10469;SDS011;5282;47.052;15.458;2023-09-19T01:43:52;3.90;;;3.60;;
10469;SDS011;5282;47.052;15.458;2023-09-19T01:46:24;3.83;;;3.43;;
10469;SDS011;5282;47.052;15.458;2023-09-19T01:48:57;4.07;;;3.87;;
10469;SDS011;5282;47.052;15.458;2023-09-19T01:51:37;3.97;;;3.67;;
10469;SDS011;5282;47.052;15.458;2023-09-19T01:54:12;3.77;;;3.57;;
10469;SDS011;5282;47.052;15.458;2023-09-19T01:56:48;3.80;;;3.50;;
10469;SDS011;5282;47.052;15.458;2023-09-19T01:59:21;3.47;;;3.17;;
10469;SDS011;5282;47.052;15.458;2023-09-19T02:01:54;3.73;;;3.10;;
10469;SDS011;5282;47.052;15.458;2023-09-19T02:04:23;3.50;;;3.30;;
10469;SDS011;5282;47.052;15.458;2023-09-19T02:06:51;3.07;;;2.87;;
10469;SDS011;5282;47.052;15.458;2023-09-19T02:09:18;3.47;;;3.20;;
10469;SDS011;5282;47.052;15.458;2023-09-19T02:11:45;3.10;;;3.00;;
10469;SDS011;5282;47.052;15.458;2023-09-19T02:14:12;4.67;;;3.23;;
10469;SDS011;5282;47.052;15.458;2023-09-19T02:16:41;3.43;;;3.13;;
10469;SDS011;5282;47.052;15.458;2023-09-19T02:19:12;3.40;;;3.00;;
10469;SDS011;5282;47.052;15.458;2023-09-19T02:21:39;3.60;;;3.20;;
10469;SDS011;5282;47.052;15.458;2023-09-19T02:24:08;5.03;;;3.17;;
10469;SDS011;5282;47.052;15.458;2023-09-19T02:26:37;5.20;;;3.27;;
10469;SDS011;5282;47.052;15.458;2023-09-19T02:29:04;2.80;;;2.70;;
10469;SDS011;5282;47.052;15.458;2023-09-19T02:31:31;2.87;;;2.67;;
10469;SDS011;5282;47.052;15.458;2023-09-19T02:33:58;2.93;;;2.80;;
10469;SDS011;5282;47.052;15.458;2023-09-19T02:36:28;2.87;;;2.67;;
10469;SDS011;5282;47.052;15.458;2023-09-19T02:38:55;3.80;;;2.90;;
10469;SDS011;5282;47.052;15.458;2023-09-19T02:41:22;2.93;;;2.80;;
10469;SDS011;5282;47.052;15.458;2023-09-19T02:43:55;3.23;;;2.97;;
10469;SDS011;5282;47.052;15.458;2023-09-19T02:46:22;2.97;;;2.63;;
10469;SDS011;5282;47.052;15.458;2023-09-19T02:48:49;4.17;;;2.80;;
10469;SDS011;5282;47.052;15.458;2023-09-19T02:51:16;2.90;;;2.70;;
10469;SDS011;5282;47.052;15.458;2023-09-19T02:53:49;3.60;;;2.83;;
10469;SDS011;5282;47.052;15.458;2023-09-19T02:56:17;2.37;;;2.27;;
10469;SDS011;5282;47.052;15.458;2023-09-19T02:58:44;3.00;;;2.80;;
10469;SDS011;5282;47.052;15.458;2023-09-19T03:01:13;2.50;;;2.30;;
10469;SDS011;5282;47.052;15.458;2023-09-19T03:03:40;2.40;;;2.30;;
10469;SDS011;5282;47.052;15.458;2023-09-19T03:06:08;2.27;;;2.07;;
10469;SDS011;5282;47.052;15.458;2023-09-19T03:08:35;2.00;;;1.80;;
10469;SDS011;5282;47.052;15.458;2023-09-19T03:11:06;3.10;;;2.13;;
10469;SDS011;5282;47.052;15.458;2023-09-19T03:13:37;1.37;;;1.30;;
10469;SDS011;5282;47.052;15.458;2023-09-19T03:16:05;1.33;;;1.33;;
10469;SDS011;5282;47.052;15.458;2023-09-19T03:18:33;1.43;;;1.33;;
10469;SDS011;5282;47.052;15.458;2023-09-19T03:21:01;2.40;;;1.20;;
10469;SDS011;5282;47.052;15.458;2023-09-19T03:23:28;1.20;;;1.20;;
10469;SDS011;5282;47.052;15.458;2023-09-19T03:25:56;1.13;;;1.00;;
10469;SDS011;5282;47.052;15.458;2023-09-19T03:28:25;0.90;;;0.90;;
10469;SDS011;5282;47.052;15.458;2023-09-19T03:31:00;2.47;;;1.10;;
10469;SDS011;5282;47.052;15.458;2023-09-19T03:33:27;1.10;;;1.10;;
10469;SDS011;5282;47.052;15.458;2023-09-19T03:35:56;0.97;;;0.97;;
10469;SDS011;5282;47.052;15.458;2023-09-19T03:38:24;1.00;;;0.80;;
10469;SDS011;5282;47.052;15.458;2023-09-19T03:40:51;1.10;;;1.10;;
10469;SDS011;5282;47.052;15.458;2023-09-19T03:43:18;1.00;;;1.00;;
10469;SDS011;5282;47.052;15.458;2023-09-19T03:45:47;0.70;;;0.70;;
10469;SDS011;5282;47.052;15.458;2023-09-19T03:48:14;1.00;;;1.00;;
10469;SDS011;5282;47.052;15.458;2023-09-19T03:50:41;0.80;;;0.80;;
10469;SDS011;5282;47.052;15.458;2023-09-19T03:53:09;0.80;;;0.80;;
10469;SDS011;5282;47.052;15.458;2023-09-19T03:55:36;0.90;;;0.90;;
10469;SDS011;5282;47.052;15.458;2023-09-19T03:58:04;0.90;;;0.90;;
10469;SDS011;5282;47.052;15.458;2023-09-19T04:00:31;1.10;;;1.10;;
10469;SDS011;5282;47.052;15.458;2023-09-19T04:03:01;0.87;;;0.87;;
10469;SDS011;5282;47.052;15.458;2023-09-19T04:05:31;0.83;;;0.83;;
10469;SDS011;5282;47.052;15.458;2023-09-19T04:07:59;0.87;;;0.87;;
10469;SDS011;5282;47.052;15.458;2023-09-19T04:10:26;1.27;;;0.80;;
10469;SDS011;5282;47.052;15.458;2023-09-19T04:12:54;2.67;;;1.27;;
10469;SDS011;5282;47.052;15.458;2023-09-19T04:15:22;1.20;;;1.20;;
10469;SDS011;5282;47.052;15.458;2023-09-19T04:17:50;1.30;;;1.20;;
10469;SDS011;5282;47.052;15.458;2023-09-19T04:20:19;0.87;;;0.87;;
10469;SDS011;5282;47.052;15.458;2023-09-19T04:22:48;1.20;;;1.20;;
10469;SDS011;5282;47.052;15.458;2023-09-19T04:25:15;1.20;;;1.20;;
10469;SDS011;5282;47.052;15.458;2023-09-19T04:27:42;1.20;;;1.20;;
10469;SDS011;5282;47.052;15.458;2023-09-19T04:30:10;1.50;;;1.40;;
10469;SDS011;5282;47.052;15.458;2023-09-19T04:32:38;1.70;;;1.30;;
10469;SDS011;5282;47.052;15.458;2023-09-19T04:35:06;1.23;;;1.13;;
10469;SDS011;5282;47.052;15.458;2023-09-19T04:37:39;1.20;;;1.10;;
10469;SDS011;5282;47.052;15.458;2023-09-19T04:40:07;1.30;;;1.20;;
10469;SDS011;5282;47.052;15.458;2023-09-19T04:42:39;1.53;;;1.53;;
10469;SDS011;5282;47.052;15.458;2023-09-19T04:45:07;3.03;;;1.57;;
10469;SDS011;5282;47.052;15.458;2023-09-19T04:47:35;1.37;;;1.37;;
10469;SDS011;5282;47.052;15.458;2023-09-19T04:50:04;1.80;;;1.70;;
10469;SDS011;5282;47.052;15.458;2023-09-19T04:52:33;1.40;;;1.40;;
10469;SDS011;5282;47.052;15.458;2023-09-19T04:55:02;2.20;;;1.20;;
10469;SDS011;5282;47.052;15.458;2023-09-19T04:57:30;1.57;;;1.47;;
10469;SDS011;5282;47.052;15.458;2023-09-19T04:59:58;1.57;;;1.47;;
10469;SDS011;5282;47.052;15.458;2023-09-19T05:02:25;1.67;;;1.43;;
10469;SDS011;5282;47.052;15.458;2023-09-19T05:04:52;1.47;;;1.37;;
10469;SDS011;5282;47.052;15.458;2023-09-19T05:07:21;1.40;;;1.30;;
10469;SDS011;5282;47.052;15.458;2023-09-19T05:09:51;1.27;;;1.27;;
10469;SDS011;5282;47.052;15.458;2023-09-19T05:12:20;1.33;;;1.23;;
10469;SDS011;5282;47.052;15.458;2023-09-19T05:14:47;1.10;;;1.10;;
10469;SDS011;5282;47.052;15.458;2023-09-19T05:17:14;1.50;;;1.40;;
10469;SDS011;5282;47.052;15.458;2023-09-19T05:19:42;1.17;;;1.17;;
10469;SDS011;5282;47.052;15.458;2023-09-19T05:22:09;1.43;;;1.10;;
10469;SDS011;5282;47.052;15.458;2023-09-19T05:24:37;1.20;;;1.20;;
10469;SDS011;5282;47.052;15.458;2023-09-19T05:27:05;1.40;;;1.40;;
10469;SDS011;5282;47.052;15.458;2023-09-19T05:29:34;2.30;;;2.20;;
10469;SDS011;5282;47.052;15.458;2023-09-19T05:32:01;1.37;;;1.30;;
10469;SDS011;5282;47.052;15.458;2023-09-19T05:34:29;1.60;;;1.60;;
10469;SDS011;5282;47.052;15.458;2023-09-19T05:36:56;1.60;;;1.50;;
10469;SDS011;5282;47.052;15.458;2023-09-19T05:39:23;1.73;;;1.73;;
10469;SDS011;5282;47.052;15.458;2023-09-19T05:41:50;1.60;;;1.60;;
10469;SDS011;5282;47.052;15.458;2023-09-19T05:44:17;1.70;;;1.60;;
10469;SDS011;5282;47.052;15.458;2023-09-19T05:46:46;1.40;;;1.40;;
10469;SDS011;5282;47.052;15.458;2023-09-19T05:49:13;1.37;;;1.20;;
10469;SDS011;5282;47.052;15.458;2023-09-19T05:51:41;2.30;;;1.50;;
10469;SDS011;5282;47.052;15.458;2023-09-19T05:54:08;1.80;;;1.70;;
10469;SDS011;5282;47.052;15.458;2023-09-19T05:56:36;2.17;;;1.97;;
10469;SDS011;5282;47.052;15.458;2023-09-19T05:59:03;1.83;;;1.73;;
10469;SDS011;5282;47.052;15.458;2023-09-19T06:01:30;1.93;;;1.80;;
10469;SDS011;5282;47.052;15.458;2023-09-19T06:04:01;1.90;;;1.90;;
10469;SDS011;5282;47.052;15.458;2023-09-19T06:06:28;2.77;;;2.10;;
10469;SDS011;5282;47.052;15.458;2023-09-19T06:08:55;2.10;;;2.00;;
10469;SDS011;5282;47.052;15.458;2023-09-19T06:11:23;2.53;;;2.33;;
10469;SDS011;5282;47.052;15.458;2023-09-19T06:13:51;2.53;;;2.30;;
10469;SDS011;5282;47.052;15.458;2023-09-19T06:16:18;2.00;;;1.90;;
10469;SDS011;5282;47.052;15.458;2023-09-19T06:18:46;2.77;;;2.57;;
10469;SDS011;5282;47.052;15.458;2023-09-19T06:21:19;3.00;;;2.47;;
10469;SDS011;5282;47.052;15.458;2023-09-19T06:23:46;2.17;;;2.07;;
10469;SDS011;5282;47.052;15.458;2023-09-19T06:26:14;2.30;;;2.20;;
10469;SDS011;5282;47.052;15.458;2023-09-19T06:28:41;2.40;;;2.20;;
10469;SDS011;5282;47.052;15.458;2023-09-19T06:31:08;2.70;;;2.60;;
10469;SDS011;5282;47.052;15.458;2023-09-19T06:33:35;2.33;;;2.23;;
10469;SDS011;5282;47.052;15.458;2023-09-19T06:36:03;2.63;;;2.43;;
10469;SDS011;5282;47.052;15.458;2023-09-19T06:38:32;2.47;;;2.27;;
10469;SDS011;5282;47.052;15.458;2023-09-19T06:41:01;2.70;;;2.50;;
10469;SDS011;5282;47.052;15.458;2023-09-19T06:43:32;2.20;;;2.10;;
10469;SDS011;5282;47.052;15.458;2023-09-19T06:46:00;3.20;;;2.37;;
10469;SDS011;5282;47.052;15.458;2023-09-19T06:48:27;2.43;;;2.33;;
10469;SDS011;5282;47.052;15.458;2023-09-19T06:50:55;2.50;;;2.40;;
10469;SDS011;5282;47.052;15.458;2023-09-19T06:53:23;3.07;;;2.33;;
10469;SDS011;5282;47.052;15.458;2023-09-19T06:55:52;2.80;;;2.30;;
10469;SDS011;5282;47.052;15.458;2023-09-19T06:58:19;2.60;;;2.50;;
10469;SDS011;5282;47.052;15.458;2023-09-19T07:00:46;2.70;;;2.60;;
10469;SDS011;5282;47.052;15.458;2023-09-19T07:03:15;2.50;;;2.40;;
10469;SDS011;5282;47.052;15.458;2023-09-19T07:05:47;2.80;;;2.50;;
10469;SDS011;5282;47.052;15.458;2023-09-19T07:08:16;3.00;;;2.60;;
10469;SDS011;5282;47.052;15.458;2023-09-19T07:10:44;2.80;;;2.60;;
10469;SDS011;5282;47.052;15.458;2023-09-19T07:13:15;2.53;;;2.43;;
10469;SDS011;5282;47.052;15.458;2023-09-19T07:15:43;2.20;;;2.10;;
10469;SDS011;5282;47.052;15.458;2023-09-19T07:18:15;2.10;;;2.00;;
10469;SDS011;5282;47.052;15.458;2023-09-19T07:20:42;2.20;;;2.10;;
10469;SDS011;5282;47.052;15.458;2023-09-19T07:23:14;2.07;;;1.97;;
10469;SDS011;5282;47.052;15.458;2023-09-19T07:25:41;2.13;;;1.93;;
10469;SDS011;5282;47.052;15.458;2023-09-19T07:28:08;2.50;;;2.40;;
10469;SDS011;5282;47.052;15.458;2023-09-19T07:30:37;2.40;;;2.30;;
10469;SDS011;5282;47.052;15.458;2023-09-19T07:33:04;1.70;;;1.70;;
10469;SDS011;5282;47.052;15.458;2023-09-19T07:35:31;2.10;;;2.00;;
10469;SDS011;5282;47.052;15.458;2023-09-19T07:37:58;2.07;;;1.97;;
10469;SDS011;5282;47.052;15.458;2023-09-19T07:40:26;2.17;;;2.00;;
10469;SDS011;5282;47.052;15.458;2023-09-19T07:42:54;2.33;;;2.10;;
10469;SDS011;5282;47.052;15.458;2023-09-19T07:45:21;2.33;;;2.00;;
10469;SDS011;5282;47.052;15.458;2023-09-19T07:47:52;3.07;;;2.30;;
10469;SDS011;5282;47.052;15.458;2023-09-19T07:50:19;2.40;;;2.20;;
10469;SDS011;5282;47.052;15.458;2023-09-19T07:52:46;2.57;;;2.33;;
10469;SDS011;5282;47.052;15.458;2023-09-19T07:55:13;3.03;;;2.20;;
10469;SDS011;5282;47.052;15.458;2023-09-19T07:57:42;3.10;;;1.93;;
10469;SDS011;5282;47.052;15.458;2023-09-19T08:00:10;1.93;;;1.83;;
10469;SDS011;5282;47.052;15.458;2023-09-19T08:02:38;2.70;;;1.83;;
10469;SDS011;5282;47.052;15.458;2023-09-19T08:05:08;2.20;;;2.10;;
10469;SDS011;5282;47.052;15.458;2023-09-19T08:07:36;2.43;;;2.00;;
10469;SDS011;5282;47.052;15.458;2023-09-19T08:10:04;3.37;;;2.50;;
10469;SDS011;5282;47.052;15.458;2023-09-19T08:12:33;2.50;;;2.40;;
10469;SDS011;5282;47.052;15.458;2023-09-19T08:15:01;2.20;;;2.10;;
10469;SDS011;5282;47.052;15.458;2023-09-19T08:17:28;2.37;;;2.27;;
10469;SDS011;5282;47.052;15.458;2023-09-19T08:19:55;2.90;;;2.33;;
10469;SDS011;5282;47.052;15.458;2023-09-19T08:22:23;2.27;;;2.10;;
10469;SDS011;5282;47.052;15.458;2023-09-19T08:24:50;2.10;;;2.00;;
10469;SDS011;5282;47.052;15.458;2023-09-19T08:27:17;2.40;;;2.20;;
10469;SDS011;5282;47.052;15.458;2023-09-19T08:29:44;2.90;;;2.40;;
10469;SDS011;5282;47.052;15.458;2023-09-19T08:32:11;2.47;;;2.37;;
10469;SDS011;5282;47.052;15.458;2023-09-19T08:34:39;2.87;;;2.30;;
10469;SDS011;5282;47.052;15.458;2023-09-19T08:37:06;3.20;;;3.00;;
10469;SDS011;5282;47.052;15.458;2023-09-19T08:39:35;3.30;;;3.07;;
10469;SDS011;5282;47.052;15.458;2023-09-19T08:42:03;2.40;;;2.10;;
10469;SDS011;5282;47.052;15.458;2023-09-19T08:44:31;2.10;;;2.00;;
10469;SDS011;5282;47.052;15.458;2023-09-19T08:47:08;2.30;;;2.20;;
10469;SDS011;5282;47.052;15.458;2023-09-19T08:49:40;2.43;;;2.33;;
10469;SDS011;5282;47.052;15.458;2023-09-19T08:52:16;2.13;;;2.03;;
10469;SDS011;5282;47.052;15.458;2023-09-19T08:54:50;1.80;;;1.70;;
10469;SDS011;5282;47.052;15.458;2023-09-19T08:57:19;1.80;;;1.80;;
10469;SDS011;5282;47.052;15.458;2023-09-19T08:59:47;1.97;;;1.90;;
10469;SDS011;5282;47.052;15.458;2023-09-19T09:02:16;1.93;;;1.83;;
10469;SDS011;5282;47.052;15.458;2023-09-19T09:04:45;1.95;;;1.85;;
10469;SDS011;5282;47.052;15.458;2023-09-19T09:07:13;1.60;;;1.60;;
10469;SDS011;5282;47.052;15.458;2023-09-19T09:09:42;1.80;;;1.70;;
10469;SDS011;5282;47.052;15.458;2023-09-19T09:12:11;2.17;;;2.00;;
10469;SDS011;5282;47.052;15.458;2023-09-19T09:14:39;1.50;;;1.40;;
10469;SDS011;5282;47.052;15.458;2023-09-19T09:17:06;1.70;;;1.60;;
10469;SDS011;5282;47.052;15.458;2023-09-19T09:19:34;1.85;;;1.77;;
10469;SDS011;5282;47.052;15.458;2023-09-19T09:22:07;1.77;;;1.77;;
10469;SDS011;5282;47.052;15.458;2023-09-19T09:24:35;1.42;;;1.42;;
10469;SDS011;5282;47.052;15.458;2023-09-19T09:27:05;1.67;;;1.58;;
10469;SDS011;5282;47.052;15.458;2023-09-19T09:29:41;1.67;;;1.58;;
10469;SDS011;5282;47.052;15.458;2023-09-19T09:32:21;2.92;;;1.90;;
10469;SDS011;5282;47.052;15.458;2023-09-19T09:34:50;2.30;;;2.17;;
10469;SDS011;5282;47.052;15.458;2023-09-19T09:37:18;1.48;;;1.48;;
10469;SDS011;5282;47.052;15.458;2023-09-19T09:39:50;1.77;;;1.67;;
10469;SDS011;5282;47.052;15.458;2023-09-19T09:42:29;7.85;;;6.40;;
10469;SDS011;5282;47.052;15.458;2023-09-19T09:45:16;3.03;;;2.60;;
10469;SDS011;5282;47.052;15.458;2023-09-19T09:47:45;1.70;;;1.70;;
10469;SDS011;5282;47.052;15.458;2023-09-19T09:50:26;1.75;;;1.65;;
10469;SDS011;5282;47.052;15.458;2023-09-19T09:53:05;1.70;;;1.67;;
10469;SDS011;5282;47.052;15.458;2023-09-19T09:55:59;1.70;;;1.60;;
10469;SDS011;5282;47.052;15.458;2023-09-19T09:58:30;1.25;;;1.25;;
10469;SDS011;5282;47.052;15.458;2023-09-19T10:00:59;1.83;;;1.73;;
10469;SDS011;5282;47.052;15.458;2023-09-19T10:03:34;2.20;;;1.40;;
10469;SDS011;5282;47.052;15.458;2023-09-19T10:06:07;1.35;;;1.27;;
10469;SDS011;5282;47.052;15.458;2023-09-19T10:08:57;1.48;;;1.42;;
10469;SDS011;5282;47.052;15.458;2023-09-19T10:11:30;1.55;;;1.55;;
10469;SDS011;5282;47.052;15.458;2023-09-19T10:13:58;1.60;;;1.50;;
10469;SDS011;5282;47.052;15.458;2023-09-19T10:16:33;1.98;;;1.60;;
10469;SDS011;5282;47.052;15.458;2023-09-19T10:19:02;1.33;;;1.33;;
10469;SDS011;5282;47.052;15.458;2023-09-19T10:21:34;1.95;;;1.50;;
10469;SDS011;5282;47.052;15.458;2023-09-19T10:24:05;1.58;;;1.58;;
10469;SDS011;5282;47.052;15.458;2023-09-19T10:26:34;1.30;;;1.30;;
10469;SDS011;5282;47.052;15.458;2023-09-19T10:29:05;1.48;;;1.48;;
10469;SDS011;5282;47.052;15.458;2023-09-19T10:31:36;1.60;;;1.50;;
10469;SDS011;5282;47.052;15.458;2023-09-19T10:34:06;1.50;;;1.40;;
10469;SDS011;5282;47.052;15.458;2023-09-19T10:36:36;1.45;;;1.30;;
10469;SDS011;5282;47.052;15.458;2023-09-19T10:39:04;1.40;;;1.30;;
10469;SDS011;5282;47.052;15.458;2023-09-19T10:41:34;1.23;;;1.23;;
10469;SDS011;5282;47.052;15.458;2023-09-19T10:44:03;1.10;;;1.10;;
10469;SDS011;5282;47.052;15.458;2023-09-19T10:46:31;1.33;;;0.98;;
10469;SDS011;5282;47.052;15.458;2023-09-19T10:49:00;0.98;;;0.98;;
10469;SDS011;5282;47.052;15.458;2023-09-19T10:51:29;1.35;;;1.10;;
10469;SDS011;5282;47.052;15.458;2023-09-19T10:54:06;1.40;;;0.90;;
10469;SDS011;5282;47.052;15.458;2023-09-19T10:56:39;1.13;;;1.13;;
10469;SDS011;5282;47.052;15.458;2023-09-19T10:59:13;1.08;;;1.08;;
10469;SDS011;5282;47.052;15.458;2023-09-19T11:01:43;1.00;;;1.00;;
10469;SDS011;5282;47.052;15.458;2023-09-19T11:04:23;1.10;;;1.10;;
10469;SDS011;5282;47.052;15.458;2023-09-19T11:07:02;1.20;;;1.20;;
10469;SDS011;5282;47.052;15.458;2023-09-19T11:09:43;1.65;;;0.80;;
10469;SDS011;5282;47.052;15.458;2023-09-19T11:12:12;0.93;;;0.93;;
10469;SDS011;5282;47.052;15.458;2023-09-19T11:15:08;1.95;;;0.90;;
10469;SDS011;5282;47.052;15.458;2023-09-19T11:17:36;1.23;;;1.20;;
10469;SDS011;5282;47.052;15.458;2023-09-19T11:20:23;1.10;;;1.10;;
10469;SDS011;5282;47.052;15.458;2023-09-19T11:25:50;1.17;;;1.17;;
10469;SDS011;5282;47.052;15.458;2023-09-19T11:28:31;1.20;;;1.20;;
10469;SDS011;5282;47.052;15.458;2023-09-19T11:30:59;1.00;;;1.00;;
10469;SDS011;5282;47.052;15.458;2023-09-19T11:33:46;1.00;;;1.00;;
10469;SDS011;5282;47.052;15.458;2023-09-19T11:36:16;1.20;;;1.10;;
10469;SDS011;5282;47.052;15.458;2023-09-19T11:38:57;0.88;;;0.88;;
10469;SDS011;5282;47.052;15.458;2023-09-19T11:41:39;0.98;;;0.98;;
10469;SDS011;5282;47.052;15.458;2023-09-19T11:47:02;1.25;;;1.15;;
10469;SDS011;5282;47.052;15.458;2023-09-19T11:49:29;1.05;;;1.05;;
10469;SDS011;5282;47.052;15.458;2023-09-19T11:51:59;0.93;;;0.90;;
10469;SDS011;5282;47.052;15.458;2023-09-19T11:54:30;1.00;;;1.00;;
10469;SDS011;5282;47.052;15.458;2023-09-19T11:56:58;0.98;;;0.98;;
10469;SDS011;5282;47.052;15.458;2023-09-19T11:59:27;1.00;;;1.00;;
10469;SDS011;5282;47.052;15.458;2023-09-19T12:01:55;1.00;;;1.00;;
10469;SDS011;5282;47.052;15.458;2023-09-19T12:04:33;1.00;;;1.00;;
10469;SDS011;5282;47.052;15.458;2023-09-19T12:07:04;1.17;;;1.17;;
10469;SDS011;5282;47.052;15.458;2023-09-19T12:09:38;1.20;;;1.20;;
10469;SDS011;5282;47.052;15.458;2023-09-19T12:12:07;1.00;;;0.98;;
10469;SDS011;5282;47.052;15.458;2023-09-19T12:14:37;2.20;;;1.48;;
10469;SDS011;5282;47.052;15.458;2023-09-19T12:17:06;1.25;;;1.25;;
10469;SDS011;5282;47.052;15.458;2023-09-19T12:19:34;1.10;;;1.10;;
10469;SDS011;5282;47.052;15.458;2023-09-19T12:22:01;1.30;;;1.20;;
10469;SDS011;5282;47.052;15.458;2023-09-19T12:24:32;1.73;;;0.90;;
10469;SDS011;5282;47.052;15.458;2023-09-19T12:27:02;1.23;;;1.13;;
10469;SDS011;5282;47.052;15.458;2023-09-19T12:29:31;1.17;;;1.17;;
10469;SDS011;5282;47.052;15.458;2023-09-19T12:32:08;1.17;;;0.95;;
10469;SDS011;5282;47.052;15.458;2023-09-19T12:34:35;0.95;;;0.95;;
10469;SDS011;5282;47.052;15.458;2023-09-19T12:37:08;1.23;;;1.20;;
10469;SDS011;5282;47.052;15.458;2023-09-19T12:39:40;1.42;;;1.13;;
10469;SDS011;5282;47.052;15.458;2023-09-19T12:42:08;1.08;;;1.08;;
10469;SDS011;5282;47.052;15.458;2023-09-19T12:44:40;1.10;;;1.08;;
10469;SDS011;5282;47.052;15.458;2023-09-19T12:47:09;1.05;;;1.02;;
10469;SDS011;5282;47.052;15.458;2023-09-19T12:52:39;1.08;;;1.08;;
10469;SDS011;5282;47.052;15.458;2023-09-19T12:55:16;1.20;;;1.15;;
10469;SDS011;5282;47.052;15.458;2023-09-19T12:57:55;1.00;;;1.00;;
10469;SDS011;5282;47.052;15.458;2023-09-19T13:00:30;1.10;;;1.10;;
10469;SDS011;5282;47.052;15.458;2023-09-19T13:03:09;1.00;;;1.00;;
10469;SDS011;5282;47.052;15.458;2023-09-19T13:05:48;1.10;;;1.10;;
10469;SDS011;5282;47.052;15.458;2023-09-19T13:08:25;1.15;;;1.00;;
10469;SDS011;5282;47.052;15.458;2023-09-19T13:11:06;0.85;;;0.85;;
10469;SDS011;5282;47.052;15.458;2023-09-19T13:13:37;1.10;;;1.10;;
10469;SDS011;5282;47.052;15.458;2023-09-19T13:16:05;1.00;;;1.00;;
10469;SDS011;5282;47.052;15.458;2023-09-19T13:18:44;1.20;;;1.10;;
10469;SDS011;5282;47.052;15.458;2023-09-19T13:21:13;1.20;;;1.20;;
10469;SDS011;5282;47.052;15.458;2023-09-19T13:23:49;1.20;;;1.20;;
10469;SDS011;5282;47.052;15.458;2023-09-19T13:26:19;1.20;;;1.10;;
10469;SDS011;5282;47.052;15.458;2023-09-19T13:28:46;1.65;;;1.08;;
10469;SDS011;5282;47.052;15.458;2023-09-19T13:31:14;1.25;;;1.25;;
10469;SDS011;5282;47.052;15.458;2023-09-19T13:33:45;1.27;;;0.93;;
10469;SDS011;5282;47.052;15.458;2023-09-19T13:36:12;1.23;;;1.23;;
10469;SDS011;5282;47.052;15.458;2023-09-19T13:38:39;1.20;;;1.20;;
10469;SDS011;5282;47.052;15.458;2023-09-19T13:41:08;1.27;;;1.20;;
10469;SDS011;5282;47.052;15.458;2023-09-19T13:43:37;1.27;;;1.23;;
10469;SDS011;5282;47.052;15.458;2023-09-19T13:46:04;1.30;;;1.20;;
10469;SDS011;5282;47.052;15.458;2023-09-19T13:48:37;1.23;;;1.20;;
10469;SDS011;5282;47.052;15.458;2023-09-19T13:51:04;2.45;;;1.10;;
10469;SDS011;5282;47.052;15.458;2023-09-19T13:53:31;1.40;;;1.40;;
10469;SDS011;5282;47.052;15.458;2023-09-19T13:55:59;1.13;;;1.13;;
10469;SDS011;5282;47.052;15.458;2023-09-19T13:58:26;1.13;;;1.13;;
10469;SDS011;5282;47.052;15.458;2023-09-19T14:00:55;1.27;;;1.27;;
10469;SDS011;5282;47.052;15.458;2023-09-19T14:03:23;1.27;;;1.27;;
10469;SDS011;5282;47.052;15.458;2023-09-19T14:05:53;1.30;;;1.30;;
10469;SDS011;5282;47.052;15.458;2023-09-19T14:08:20;1.20;;;1.20;;
10469;SDS011;5282;47.052;15.458;2023-09-19T14:10:48;1.50;;;1.40;;
10469;SDS011;5282;47.052;15.458;2023-09-19T14:13:16;1.20;;;1.20;;
10469;SDS011;5282;47.052;15.458;2023-09-19T14:15:43;1.33;;;1.20;;
10469;SDS011;5282;47.052;15.458;2023-09-19T14:18:11;1.40;;;1.40;;
10469;SDS011;5282;47.052;15.458;2023-09-19T14:20:38;1.30;;;1.30;;
10469;SDS011;5282;47.052;15.458;2023-09-19T14:23:07;1.20;;;1.20;;
10469;SDS011;5282;47.052;15.458;2023-09-19T14:25:34;1.17;;;1.17;;
10469;SDS011;5282;47.052;15.458;2023-09-19T14:28:02;1.45;;;1.40;;
10469;SDS011;5282;47.052;15.458;2023-09-19T14:30:29;1.02;;;1.00;;
10469;SDS011;5282;47.052;15.458;2023-09-19T14:32:56;1.00;;;1.00;;
10469;SDS011;5282;47.052;15.458;2023-09-19T14:35:25;1.40;;;1.33;;
10469;SDS011;5282;47.052;15.458;2023-09-19T14:37:52;1.27;;;1.27;;
10469;SDS011;5282;47.052;15.458;2023-09-19T14:40:20;1.40;;;1.40;;
10469;SDS011;5282;47.052;15.458;2023-09-19T14:42:48;1.30;;;1.20;;
10469;SDS011;5282;47.052;15.458;2023-09-19T14:45:15;1.20;;;1.20;;
10469;SDS011;5282;47.052;15.458;2023-09-19T14:47:43;1.25;;;1.10;;
10469;SDS011;5282;47.052;15.458;2023-09-19T14:50:10;1.08;;;1.08;;
10469;SDS011;5282;47.052;15.458;2023-09-19T14:52:39;1.15;;;1.15;;
10469;SDS011;5282;47.052;15.458;2023-09-19T14:55:06;1.95;;;1.40;;
10469;SDS011;5282;47.052;15.458;2023-09-19T14:57:40;1.05;;;1.05;;
10469;SDS011;5282;47.052;15.458;2023-09-19T15:00:10;1.15;;;0.80;;
10469;SDS011;5282;47.052;15.458;2023-09-19T15:02:39;2.55;;;1.30;;
10469;SDS011;5282;47.052;15.458;2023-09-19T15:05:07;1.20;;;1.20;;
10469;SDS011;5282;47.052;15.458;2023-09-19T15:07:35;1.08;;;1.08;;
10469;SDS011;5282;47.052;15.458;2023-09-19T15:10:05;1.30;;;1.20;;
10469;SDS011;5282;47.052;15.458;2023-09-19T15:12:35;1.13;;;1.13;;
10469;SDS011;5282;47.052;15.458;2023-09-19T15:15:03;1.42;;;1.25;;